createdAt,value
2022-11-04T00:01:37.295Z,2.80
2022-11-04T00:04:54.220Z,2.40
2022-11-04T00:08:02.943Z,2.30
2022-11-04T00:11:27.418Z,2.20
2022-11-04T00:14:49.423Z,2.10
2022-11-04T00:18:08.268Z,2.10
2022-11-04T00:21:17.166Z,1.90
2022-11-04T00:24:46.328Z,1.37
2022-11-04T00:27:54.638Z,1.35
2022-11-04T00:31:33.253Z,1.40
2022-11-04T00:34:50.439Z,1.27
2022-11-04T00:38:06.878Z,1.60
2022-11-04T00:41:13.511Z,1.10
2022-11-04T00:44:30.511Z,1.10
2022-11-04T00:47:37.637Z,0.80
2022-11-04T00:51:10.507Z,0.87
2022-11-04T00:54:14.549Z,0.87
2022-11-04T00:57:42.520Z,0.70
2022-11-04T01:00:46.461Z,0.60
2022-11-04T01:04:17.609Z,0.70
2022-11-04T01:07:42.570Z,0.95
2022-11-04T01:10:56.503Z,0.50
2022-11-04T01:14:00.524Z,0.40
2022-11-04T01:17:16.558Z,0.50
2022-11-04T01:20:20.637Z,0.40
2022-11-04T01:23:52.643Z,0.40
2022-11-04T01:27:11.622Z,0.30
2022-11-04T01:30:28.617Z,0.40
2022-11-04T01:33:44.585Z,0.47
2022-11-04T01:37:00.554Z,0.30
2022-11-04T01:40:20.652Z,0.40
2022-11-04T01:44:02.771Z,0.40
2022-11-04T01:47:21.731Z,0.40
2022-11-04T01:50:55.751Z,0.60
2022-11-04T01:54:11.657Z,0.20
2022-11-04T01:57:49.713Z,0.40
2022-11-04T02:01:05.839Z,0.70
2022-11-04T02:04:42.865Z,0.57
2022-11-04T02:08:02.263Z,0.60
2022-11-04T02:11:23.888Z,0.70
2022-11-04T02:14:27.622Z,0.40
2022-11-04T02:18:06.833Z,0.90
2022-11-04T02:21:26.821Z,0.80
2022-11-04T02:25:07.764Z,0.80
2022-11-04T02:28:27.780Z,1.10
2022-11-04T02:32:02.883Z,1.80
2022-11-04T02:35:19.769Z,1.40
2022-11-04T02:38:52.829Z,1.40
2022-11-04T02:42:09.791Z,1.70
2022-11-04T02:45:41.923Z,1.60
2022-11-04T02:49:01.861Z,1.60
2022-11-04T02:52:32.668Z,1.73
2022-11-04T02:55:52.014Z,1.70
2022-11-04T02:59:25.893Z,1.43
2022-11-04T03:02:44.971Z,1.57
2022-11-04T03:06:20.936Z,1.60
2022-11-04T03:09:37.023Z,1.80
2022-11-04T03:13:06.123Z,1.63
2022-11-04T03:16:23.082Z,2.10
2022-11-04T03:19:56.964Z,1.53
2022-11-04T03:23:14.949Z,2.05
2022-11-04T03:26:49.036Z,1.70
2022-11-04T03:30:08.056Z,1.70
2022-11-04T03:33:40.026Z,1.73
2022-11-04T03:36:44.010Z,2.07
2022-11-04T03:40:17.048Z,1.60
2022-11-04T03:43:36.143Z,1.55
2022-11-04T03:47:10.093Z,1.40
2022-11-04T03:50:26.158Z,1.60
2022-11-04T03:53:58.209Z,1.50
2022-11-04T03:57:19.002Z,1.10
2022-11-04T04:00:49.190Z,1.17
2022-11-04T04:04:20.056Z,1.10
2022-11-04T04:07:36.056Z,1.00
2022-11-04T04:11:06.953Z,0.95
2022-11-04T04:14:26.352Z,1.07
2022-11-04T04:18:01.081Z,1.07
2022-11-04T04:21:17.096Z,0.80
2022-11-04T04:24:49.660Z,0.80
2022-11-04T04:28:05.204Z,0.65
2022-11-04T04:31:37.378Z,0.50
2022-11-04T04:34:57.218Z,0.53
2022-11-04T04:38:29.925Z,0.37
2022-11-04T04:41:51.193Z,0.60
2022-11-04T04:45:19.491Z,0.40
2022-11-04T04:48:29.210Z,0.45
2022-11-04T04:52:01.461Z,0.60
2022-11-04T04:55:05.244Z,0.60
2022-11-04T04:58:27.311Z,0.20
2022-11-04T05:01:31.400Z,0.10
2022-11-04T05:04:48.419Z,0.10
2022-11-04T05:08:08.567Z,0.30
2022-11-04T05:11:39.113Z,0.30
2022-11-04T05:14:55.324Z,0.40
2022-11-04T05:18:23.358Z,0.37
2022-11-04T05:21:39.481Z,0.30
2022-11-04T05:25:14.339Z,0.60
2022-11-04T05:28:18.383Z,0.20
2022-11-04T05:31:37.366Z,0.30
2022-11-04T05:34:41.400Z,0.40
2022-11-04T05:38:00.389Z,0.40
2022-11-04T05:41:17.462Z,0.53
2022-11-04T05:44:33.417Z,0.55
2022-11-04T05:47:37.450Z,0.30
2022-11-04T05:50:59.429Z,0.60
2022-11-04T05:54:06.647Z,0.43
2022-11-04T05:57:45.561Z,0.30
2022-11-04T06:00:49.471Z,0.13
2022-11-04T06:04:26.490Z,0.60
2022-11-04T06:07:33.910Z,0.40
2022-11-04T06:10:57.936Z,0.20
2022-11-04T06:14:19.894Z,0.33
2022-11-04T06:17:46.321Z,0.30
2022-11-04T06:20:54.737Z,0.93
2022-11-04T06:24:29.499Z,0.40
2022-11-04T06:27:33.563Z,0.40
2022-11-04T06:31:04.901Z,0.40
2022-11-04T06:34:27.487Z,0.50
2022-11-04T06:37:46.588Z,0.50
2022-11-04T06:40:53.750Z,0.60
2022-11-04T06:44:10.650Z,0.50
2022-11-04T06:47:30.696Z,0.55
2022-11-04T06:50:49.551Z,0.35
2022-11-04T06:53:53.671Z,0.60
2022-11-04T06:57:13.649Z,0.50
2022-11-04T07:00:29.682Z,0.90
2022-11-04T07:04:01.712Z,0.70
2022-11-04T07:07:05.630Z,0.50
2022-11-04T07:10:24.642Z,0.40
2022-11-04T07:13:43.732Z,0.70
2022-11-04T07:17:18.812Z,0.60
2022-11-04T07:20:36.690Z,0.70
2022-11-04T07:23:58.737Z,0.97
2022-11-04T07:30:27.703Z,1.10
2022-11-04T07:33:31.893Z,0.87
2022-11-04T07:37:03.728Z,0.63
2022-11-04T07:40:08.159Z,0.83
2022-11-04T07:43:24.851Z,2.17
2022-11-04T07:46:28.834Z,1.07
2022-11-04T07:49:47.949Z,1.50
2022-11-04T07:53:09.033Z,1.90
2022-11-04T07:56:39.823Z,2.10
2022-11-04T07:59:43.839Z,2.47
2022-11-04T08:03:03.836Z,3.20
2022-11-04T08:06:35.650Z,1.90
2022-11-04T08:09:52.788Z,2.20
2022-11-04T08:13:12.092Z,2.60
2022-11-04T08:16:33.943Z,2.70
2022-11-04T08:19:43.959Z,2.90
2022-11-04T08:23:03.014Z,3.30
2022-11-04T08:26:35.894Z,4.35
2022-11-04T08:29:40.138Z,3.70
2022-11-04T08:33:13.951Z,4.70
2022-11-04T08:36:33.004Z,4.00
2022-11-04T08:39:52.148Z,3.93
2022-11-04T08:43:14.999Z,4.03
2022-11-04T08:46:45.140Z,3.77
2022-11-04T08:50:03.965Z,4.20
2022-11-04T08:53:36.100Z,4.15
2022-11-04T08:56:55.128Z,3.97
2022-11-04T09:00:31.001Z,4.13
2022-11-04T09:03:35.108Z,4.30
2022-11-04T09:07:08.318Z,4.00
2022-11-04T09:10:10.157Z,4.87
2022-11-04T09:13:39.954Z,4.97
2022-11-04T09:16:59.094Z,4.40
2022-11-04T09:20:30.139Z,5.27
2022-11-04T09:23:37.162Z,4.87
2022-11-04T09:27:08.029Z,5.10
2022-11-04T09:30:15.156Z,5.30
2022-11-04T09:33:50.039Z,6.27
2022-11-04T09:36:57.149Z,5.07
2022-11-04T09:40:16.058Z,7.10
2022-11-04T09:43:37.188Z,5.20
2022-11-04T09:47:05.223Z,6.40
2022-11-04T09:50:25.369Z,5.50
2022-11-04T09:53:56.179Z,5.75
2022-11-04T09:57:12.235Z,5.63
2022-11-04T10:00:46.276Z,6.53
2022-11-04T10:04:23.276Z,6.30
2022-11-04T10:07:42.194Z,7.77
2022-11-04T10:11:13.280Z,6.93
2022-11-04T10:14:35.792Z,9.00
2022-11-04T10:18:11.290Z,9.27
2022-11-04T10:21:27.193Z,7.93
2022-11-04T10:25:02.548Z,8.23
2022-11-04T10:28:18.259Z,8.25
2022-11-04T10:31:34.291Z,8.73
2022-11-04T10:34:51.364Z,9.47
2022-11-04T10:38:28.309Z,9.60
2022-11-04T10:41:55.387Z,8.50
2022-11-04T10:45:14.393Z,8.33
2022-11-04T10:48:30.363Z,8.40
2022-11-04T10:51:49.425Z,9.30
2022-11-04T10:55:08.329Z,8.57
2022-11-04T10:58:41.631Z,8.57
2022-11-04T11:01:57.499Z,8.70
2022-11-04T11:05:32.597Z,9.70
2022-11-04T11:09:03.376Z,8.90
2022-11-04T11:12:50.473Z,9.40
2022-11-04T11:15:57.412Z,9.30
2022-11-04T11:19:34.432Z,8.00
2022-11-04T11:22:59.303Z,9.40
2022-11-04T11:26:25.502Z,9.60
2022-11-04T11:29:46.397Z,8.65
2022-11-04T11:33:20.435Z,7.90
2022-11-04T11:36:36.547Z,8.90
2022-11-04T11:40:04.519Z,8.55
2022-11-04T11:43:20.454Z,8.03
2022-11-04T11:46:52.795Z,8.35
2022-11-04T11:50:12.479Z,8.25
2022-11-04T11:53:44.736Z,8.33
2022-11-04T11:57:13.739Z,7.80
2022-11-04T12:10:57.551Z,8.25
2022-11-04T12:14:13.581Z,7.50
2022-11-04T12:17:42.747Z,7.00
2022-11-04T12:21:03.581Z,8.37
2022-11-04T12:24:36.762Z,6.80
2022-11-04T12:27:53.584Z,7.80
2022-11-04T12:31:29.874Z,7.75
2022-11-04T12:34:53.093Z,6.65
2022-11-04T12:38:24.642Z,7.23
2022-11-04T12:42:14.750Z,7.25
2022-11-04T12:45:25.732Z,7.30
2022-11-04T12:48:43.651Z,6.60
2022-11-04T12:52:20.751Z,6.90
2022-11-04T12:55:43.975Z,6.23
2022-11-04T12:59:16.748Z,6.53
2022-11-04T13:02:40.848Z,5.67
2022-11-04T13:06:12.847Z,6.80
2022-11-04T13:09:28.760Z,6.15
2022-11-04T13:12:56.776Z,6.30
2022-11-04T13:16:13.832Z,5.57
2022-11-04T13:19:48.871Z,5.67
2022-11-04T13:23:07.847Z,2.67
2022-11-04T13:26:36.868Z,4.70
2022-11-04T13:29:52.860Z,3.25
2022-11-04T13:33:27.935Z,3.80
2022-11-04T13:36:46.880Z,3.70
2022-11-04T13:40:20.923Z,3.75
2022-11-04T13:43:52.905Z,3.20
2022-11-04T13:47:25.074Z,2.50
2022-11-04T13:50:43.873Z,2.80
2022-11-04T13:54:18.932Z,2.20
2022-11-04T13:57:34.961Z,2.03
2022-11-04T14:01:06.039Z,2.33
2022-11-04T14:04:45.972Z,1.60
2022-11-04T14:08:10.984Z,1.83
2022-11-04T14:11:44.019Z,1.60
2022-11-04T14:14:48.064Z,1.60
2022-11-04T14:18:28.176Z,1.50
2022-11-04T14:21:43.958Z,2.00
2022-11-04T14:25:23.140Z,1.33
2022-11-04T14:28:46.965Z,1.20
2022-11-04T14:32:20.881Z,1.17
2022-11-04T14:35:42.252Z,0.75
2022-11-04T14:39:21.049Z,1.40
2022-11-04T14:43:00.084Z,1.60
2022-11-04T14:46:29.387Z,1.07
2022-11-04T14:49:52.916Z,1.40
2022-11-04T14:53:24.177Z,1.10
2022-11-04T14:56:41.086Z,1.00
2022-11-04T15:00:12.144Z,0.80
2022-11-04T15:07:01.094Z,1.00
2022-11-04T15:10:08.135Z,0.65
2022-11-04T15:13:46.175Z,0.95
2022-11-04T15:17:02.214Z,0.80
2022-11-04T15:20:35.253Z,1.00
2022-11-04T15:23:52.163Z,1.40
2022-11-04T15:27:27.229Z,1.20
2022-11-04T15:30:55.239Z,1.03
2022-11-04T15:34:24.310Z,0.73
2022-11-04T15:37:47.414Z,0.70
2022-11-04T15:41:26.013Z,1.40
2022-11-04T15:44:42.264Z,0.90
2022-11-04T15:47:58.220Z,0.60
2022-11-04T15:51:14.390Z,0.93
2022-11-04T15:54:47.248Z,0.60
2022-11-04T15:58:07.304Z,0.50
2022-11-04T16:01:42.574Z,0.80
2022-11-04T16:05:13.300Z,0.60
2022-11-04T16:08:40.317Z,0.73
2022-11-04T16:12:20.305Z,0.93
2022-11-04T16:15:38.649Z,0.80
2022-11-04T16:19:20.207Z,0.70
2022-11-04T16:22:32.574Z,0.83
2022-11-04T16:26:03.569Z,0.90
2022-11-04T16:29:20.530Z,0.67
2022-11-04T16:32:52.494Z,0.70
2022-11-04T16:36:12.733Z,1.00
2022-11-04T16:39:34.383Z,0.73
2022-11-04T16:42:50.627Z,0.93
2022-11-04T16:46:15.480Z,0.73
2022-11-04T16:49:19.528Z,0.70
2022-11-04T16:52:55.721Z,0.80
2022-11-04T16:56:11.635Z,0.85
2022-11-04T16:59:31.549Z,1.20
2022-11-04T17:02:47.697Z,1.10
2022-11-04T17:06:21.532Z,0.90
2022-11-04T17:09:48.706Z,1.20
2022-11-04T17:13:10.847Z,1.10
2022-11-04T17:16:29.527Z,1.50
2022-11-04T17:20:01.598Z,1.10
2022-11-04T17:23:05.480Z,1.00
2022-11-04T17:26:37.744Z,1.00
2022-11-04T17:29:44.503Z,1.10
2022-11-04T17:33:12.779Z,1.30
2022-11-04T17:36:20.523Z,1.50
2022-11-04T17:39:39.641Z,1.40
2022-11-04T17:43:10.082Z,1.20
2022-11-04T17:46:21.968Z,1.20
2022-11-04T17:49:43.627Z,1.30
2022-11-04T17:53:00.583Z,1.60
2022-11-04T17:56:04.608Z,1.40
2022-11-04T17:59:37.103Z,1.40
2022-11-04T18:02:58.628Z,1.27
2022-11-04T18:06:29.733Z,1.67
2022-11-04T18:09:46.275Z,1.60
2022-11-04T18:13:09.792Z,1.53
2022-11-04T18:16:39.736Z,1.47
2022-11-04T18:20:01.567Z,1.53
2022-11-04T18:23:24.003Z,1.53
2022-11-04T18:26:50.893Z,1.60
2022-11-04T18:29:56.164Z,1.40
2022-11-04T18:33:37.951Z,1.57
2022-11-04T18:36:42.186Z,1.30
2022-11-04T18:40:06.235Z,1.40
2022-11-04T18:43:16.390Z,1.47
2022-11-04T18:46:39.788Z,1.43
2022-11-04T18:49:58.044Z,1.63
2022-11-04T18:53:25.873Z,1.50
2022-11-04T18:56:39.416Z,1.77
2022-11-04T19:00:17.212Z,1.70
2022-11-04T19:03:19.879Z,1.37
2022-11-04T19:06:54.084Z,1.50
2022-11-04T19:10:00.923Z,2.00
2022-11-04T19:13:36.476Z,1.60
2022-11-04T19:17:05.080Z,2.00
2022-11-04T19:20:26.892Z,1.70
2022-11-04T19:23:47.961Z,2.00
2022-11-04T19:27:21.897Z,1.93
2022-11-04T19:30:38.872Z,1.90
2022-11-04T19:33:57.965Z,1.70
2022-11-04T19:37:17.026Z,1.70
2022-11-04T19:40:52.928Z,1.77
2022-11-04T19:43:43.646Z,1.90
2022-11-04T19:47:00.998Z,1.67
2022-11-04T19:50:07.985Z,1.93
2022-11-04T19:53:29.974Z,2.23
2022-11-04T19:56:51.076Z,1.90
2022-11-04T20:00:09.964Z,1.77
2022-11-04T20:03:29.150Z,1.97
2022-11-04T20:06:44.988Z,1.83
2022-11-04T20:10:01.090Z,2.20
2022-11-04T20:13:26.166Z,2.00
2022-11-04T20:16:57.207Z,1.93
2022-11-04T20:20:04.366Z,1.90
2022-11-04T20:23:23.168Z,1.73
2022-11-04T20:26:39.147Z,2.07
2022-11-04T20:30:20.257Z,2.10
2022-11-04T20:33:24.165Z,2.00
2022-11-04T20:36:58.081Z,1.70
2022-11-04T20:40:14.296Z,1.90
2022-11-04T20:43:30.239Z,2.13
2022-11-04T20:46:48.389Z,1.77
2022-11-04T20:50:07.369Z,1.80
2022-11-04T20:53:12.153Z,1.75
2022-11-04T20:56:41.505Z,2.03
2022-11-04T20:59:48.227Z,2.20
2022-11-04T21:03:26.146Z,2.03
2022-11-04T21:06:33.359Z,1.90
2022-11-04T21:09:55.290Z,1.87
2022-11-04T21:12:59.298Z,2.35
2022-11-04T21:16:28.209Z,1.97
2022-11-04T21:19:48.256Z,2.20
2022-11-04T21:23:08.336Z,1.60
2022-11-04T21:26:27.411Z,2.00
2022-11-04T21:29:46.241Z,2.00
2022-11-04T21:32:50.610Z,1.80
2022-11-04T21:36:27.495Z,1.80
2022-11-04T21:39:49.499Z,1.90
2022-11-04T21:43:12.327Z,1.67
2022-11-04T21:46:28.322Z,1.73
2022-11-04T21:49:45.373Z,1.87
2022-11-04T21:53:09.478Z,1.55
2022-11-04T21:56:40.322Z,2.10
2022-11-04T21:59:44.459Z,1.40
2022-11-04T22:03:22.462Z,1.70
2022-11-04T22:06:59.472Z,1.97
2022-11-04T22:10:19.566Z,1.70
2022-11-04T22:13:40.476Z,1.90
2022-11-04T22:16:59.514Z,1.55
2022-11-04T22:20:34.513Z,1.70
2022-11-04T22:23:50.823Z,1.70
2022-11-04T22:27:31.476Z,1.60
2022-11-04T22:30:35.517Z,2.07
2022-11-04T22:34:06.859Z,1.70
2022-11-04T22:37:10.477Z,1.60
2022-11-04T22:40:29.526Z,1.90
2022-11-04T22:43:47.489Z,1.53
2022-11-04T22:47:09.554Z,1.70
2022-11-04T22:50:16.489Z,1.77
2022-11-04T22:53:35.621Z,1.80
2022-11-04T22:56:39.745Z,1.60
2022-11-04T23:00:15.728Z,2.00
2022-11-04T23:03:21.812Z,1.60
2022-11-04T23:06:37.691Z,1.80
2022-11-04T23:09:41.821Z,1.63
2022-11-04T23:13:19.801Z,1.90
2022-11-04T23:16:42.429Z,1.77
2022-11-04T23:20:14.650Z,1.50
2022-11-04T23:23:35.187Z,1.40
2022-11-04T23:27:08.656Z,1.50
2022-11-04T23:30:20.302Z,1.77
2022-11-04T23:33:57.681Z,2.10
2022-11-04T23:37:06.075Z,1.70
2022-11-04T23:40:27.703Z,1.73
2022-11-04T23:43:31.920Z,2.00
2022-11-04T23:46:53.376Z,1.50
2022-11-04T23:50:15.220Z,1.70
2022-11-04T23:53:41.339Z,2.23
2022-11-04T23:57:04.528Z,1.63
